Terminal Aerodrome Forecast
Issued by NWS Charleston, WV

Current Version | Previous Version | Text Only | Print | Product List | Glossary Off
Versions: 1 2 3 4 5 6 7 8 9 10 11 12 13 14 15 16 17 18 19 20 21 22 23

000
FTUS41 KRLX 160306 AAA
TAFEKN
TAF AMD
KEKN 160306Z 1603/1624 22009G17KT P6SM -SHRA SCT035 OVC050
     FM160700 24010G20KT 2SM +RA BR BKN005 OVC015
     FM161100 28012G18KT 3SM RA BR BKN008 OVC020
     FM162000 30011G17KT 6SM SHRA BKN010 OVC025
     FM162100 30012G18KT P6SM BKN010=

USA.gov is the U.S. government's official web portal to all federal, state and local government web resources and services.